Time;durP1;ratioP1;P1;durP2;ratioP2;P2;SDS_P1;SDS_P2;PMS_P1;PMS_P2;Temp;Humidity;BMP_temperature;BMP_pressure;BME280_temperature;BME280_humidity;BME280_pressure;Samples;Min_cycle;Max_cycle;Signal;HPM_P1;HPM_P2
2021/12/30 00:02:04;;;;;;;;;;;22.70;51.40;;;;;;5042025;28;19921;-64
2021/12/30 00:04:29;;;;;;;;;;;22.60;51.40;;;;;;5048075;28;19908;-63
2021/12/30 00:06:55;;;;;;;;;;;22.60;51.40;;;;;;5046310;28;19916;-63
2021/12/30 00:09:20;;;;;;;;;;;22.60;51.40;;;;;;5047284;28;20346;-66
2021/12/30 00:11:46;;;;;;;;;;;22.60;51.40;;;;;;5044309;28;19920;-63
2021/12/30 00:14:12;;;;;;;;;;;22.60;51.50;;;;;;5046224;28;19924;-64
2021/12/30 00:16:37;;;;;;;;;;;22.50;51.40;;;;;;5042293;28;19909;-66
2021/12/30 00:19:03;;;;;;;;;;;22.50;51.50;;;;;;5047530;28;19908;-64
2021/12/30 00:21:29;;;;;;;;;;;22.50;51.50;;;;;;5042461;28;19908;-64
2021/12/30 00:23:54;;;;;;;;;;;22.50;51.50;;;;;;5041160;28;19965;-66
2021/12/30 00:26:20;;;;;;;;;;;22.50;51.50;;;;;;5043659;28;19988;-64
2021/12/30 00:28:46;;;;;;;;;;;22.50;51.50;;;;;;5041175;28;19920;-62
2021/12/30 00:31:11;;;;;;;;;;;22.40;51.50;;;;;;5037713;28;19917;-67
2021/12/30 00:33:37;;;;;;;;;;;22.40;51.60;;;;;;5044255;28;20353;-64
2021/12/30 00:36:06;;;;;;;;;;;22.40;51.60;;;;;;5041293;28;19917;-62
2021/12/30 00:38:32;;;;;;;;;;;22.40;51.60;;;;;;5044845;28;19931;-63
2021/12/30 00:40:57;;;;;;;;;;;22.40;51.70;;;;;;5042336;28;19913;-63
2021/12/30 00:43:23;;;;;;;;;;;22.30;51.60;;;;;;5044440;28;20238;-63
2021/12/30 00:45:48;;;;;;;;;;;22.30;51.60;;;;;;5045974;28;19959;-67
2021/12/30 00:48:14;;;;;;;;;;;22.30;51.60;;;;;;5043924;28;19912;-64
2021/12/30 00:50:40;;;;;;;;;;;22.30;51.70;;;;;;5044627;28;19916;-67
2021/12/30 00:53:06;;;;;;;;;;;22.20;51.60;;;;;;5045039;28;20049;-64
2021/12/30 00:55:32;;;;;;;;;;;22.20;52.20;;;;;;5041022;28;19908;-67
2021/12/30 00:57:57;;;;;;;;;;;22.20;51.70;;;;;;5041144;28;19909;-63
2021/12/30 01:00:23;;;;;;;;;;;22.20;51.70;;;;;;5042993;28;20050;-67
2021/12/30 01:02:48;;;;;;;;;;;22.20;51.70;;;;;;5045513;28;19904;-64
2021/12/30 01:05:14;;;;;;;;;;;22.10;51.70;;;;;;5044009;28;19909;-62
2021/12/30 01:07:40;;;;;;;;;;;22.20;51.80;;;;;;5043512;28;19916;-65
2021/12/30 01:10:07;;;;;;;;;;;22.10;51.80;;;;;;5046247;28;20321;-66
2021/12/30 01:12:33;;;;;;;;;;;22.10;51.80;;;;;;5045759;28;19931;-68
2021/12/30 01:14:58;;;;;;;;;;;22.10;51.80;;;;;;5049385;28;19912;-68
2021/12/30 01:17:41;;;;;;;;;;;22.10;51.90;;;;;;5046526;28;19912;-64
2021/12/30 01:20:08;;;;;;;;;;;22.10;51.90;;;;;;5041974;28;19959;-65
2021/12/30 01:22:34;;;;;;;;;;;22.10;52.00;;;;;;5044387;28;19995;-68
2021/12/30 01:25:00;;;;;;;;;;;22.10;52.00;;;;;;5044396;28;20017;-63
2021/12/30 01:27:25;;;;;;;;;;;22.00;52.00;;;;;;5044299;28;20061;-64
2021/12/30 01:29:51;;;;;;;;;;;22.00;52.00;;;;;;5046592;28;19913;-63
2021/12/30 01:32:17;;;;;;;;;;;22.00;52.00;;;;;;5046098;28;19917;-62
2021/12/30 01:34:42;;;;;;;;;;;22.00;52.10;;;;;;5045422;28;19923;-63
2021/12/30 01:37:08;;;;;;;;;;;22.00;52.10;;;;;;5042504;28;19940;-62
2021/12/30 01:39:36;;;;;;;;;;;21.90;52.10;;;;;;5047251;28;19997;-65
2021/12/30 01:42:02;;;;;;;;;;;21.90;52.10;;;;;;5044387;28;20058;-64
2021/12/30 01:44:32;;;;;;;;;;;21.90;52.10;;;;;;5044652;28;19987;-66
2021/12/30 01:46:58;;;;;;;;;;;21.90;52.20;;;;;;5041739;28;19924;-65
2021/12/30 01:49:24;;;;;;;;;;;21.90;52.20;;;;;;5044311;28;20281;-66
2021/12/30 01:51:50;;;;;;;;;;;21.90;52.30;;;;;;5040929;28;19909;-64
2021/12/30 01:54:16;;;;;;;;;;;21.90;52.30;;;;;;5045334;28;19924;-64
2021/12/30 01:56:41;;;;;;;;;;;21.80;52.20;;;;;;5045306;28;20336;-66
2021/12/30 01:59:07;;;;;;;;;;;21.80;52.20;;;;;;5039254;28;20261;-66
2021/12/30 02:01:33;;;;;;;;;;;21.80;52.30;;;;;;5035974;28;20321;-68
2021/12/30 02:03:59;;;;;;;;;;;21.80;52.40;;;;;;5044488;28;20400;-68
2021/12/30 02:06:25;;;;;;;;;;;21.80;52.40;;;;;;5041275;28;20284;-64
2021/12/30 02:08:51;;;;;;;;;;;21.80;52.40;;;;;;5046453;28;19927;-63
2021/12/30 02:11:18;;;;;;;;;;;21.80;52.40;;;;;;5044217;28;19912;-67
2021/12/30 02:13:43;;;;;;;;;;;21.70;52.40;;;;;;5044384;28;20652;-65
2021/12/30 02:16:09;;;;;;;;;;;21.70;52.40;;;;;;5044102;28;19915;-64
2021/12/30 02:18:34;;;;;;;;;;;21.70;52.40;;;;;;5044244;28;20442;-64
2021/12/30 02:21:01;;;;;;;;;;;21.70;52.50;;;;;;5045508;28;20447;-65
2021/12/30 02:23:26;;;;;;;;;;;21.70;52.50;;;;;;5045184;28;19978;-64
2021/12/30 02:25:53;;;;;;;;;;;21.70;52.50;;;;;;5044108;28;19913;-68
2021/12/30 02:28:19;;;;;;;;;;;21.70;52.60;;;;;;5043655;28;19912;-68
2021/12/30 02:30:45;;;;;;;;;;;21.70;52.60;;;;;;5042438;28;19924;-67
2021/12/30 02:33:11;;;;;;;;;;;21.60;52.60;;;;;;5045050;28;20217;-64
2021/12/30 02:35:36;;;;;;;;;;;21.60;52.60;;;;;;5044822;28;19931;-65
2021/12/30 02:38:03;;;;;;;;;;;21.60;52.60;;;;;;5042885;28;20011;-64
2021/12/30 02:40:32;;;;;;;;;;;21.60;52.60;;;;;;5044334;28;19976;-64
2021/12/30 02:42:58;;;;;;;;;;;21.60;52.70;;;;;;5045499;28;20088;-68
2021/12/30 02:45:23;;;;;;;;;;;21.50;52.60;;;;;;5045472;28;20356;-67
2021/12/30 02:47:49;;;;;;;;;;;21.50;52.70;;;;;;5037906;28;19959;-65
2021/12/30 02:50:14;;;;;;;;;;;21.50;52.70;;;;;;5044913;28;19908;-64
2021/12/30 02:52:40;;;;;;;;;;;21.50;52.70;;;;;;5042492;28;19966;-67
2021/12/30 02:55:06;;;;;;;;;;;21.50;52.70;;;;;;5044787;28;20018;-65
2021/12/30 02:57:31;;;;;;;;;;;21.50;52.70;;;;;;5043875;28;20276;-64
2021/12/30 02:59:57;;;;;;;;;;;21.50;52.70;;;;;;5042794;28;19916;-65
2021/12/30 03:02:22;;;;;;;;;;;21.50;52.80;;;;;;5041583;28;19947;-64
2021/12/30 03:04:48;;;;;;;;;;;21.50;52.80;;;;;;5045382;28;19909;-64
2021/12/30 03:07:17;;;;;;;;;;;21.40;52.80;;;;;;5042435;28;19959;-64
2021/12/30 03:09:44;;;;;;;;;;;21.50;52.80;;;;;;5044265;28;19948;-64
2021/12/30 03:12:10;;;;;;;;;;;21.40;52.80;;;;;;5043225;28;20012;-63
2021/12/30 03:14:42;;;;;;;;;;;21.50;52.90;;;;;;5043447;28;20022;-66
2021/12/30 03:17:07;;;;;;;;;;;21.50;52.90;;;;;;5042407;28;20379;-68
2021/12/30 03:19:33;;;;;;;;;;;21.40;52.90;;;;;;5045231;28;19951;-64
2021/12/30 03:21:59;;;;;;;;;;;21.40;52.90;;;;;;5043341;28;19909;-64
2021/12/30 03:24:24;;;;;;;;;;;21.40;52.90;;;;;;5044461;28;19908;-65
2021/12/30 03:26:49;;;;;;;;;;;21.40;53.00;;;;;;5043470;28;19912;-64
2021/12/30 03:29:15;;;;;;;;;;;21.30;52.90;;;;;;5041934;28;19912;-64
2021/12/30 03:31:40;;;;;;;;;;;21.40;53.00;;;;;;5045967;28;19951;-64
2021/12/30 03:34:06;;;;;;;;;;;21.40;53.60;;;;;;5048071;28;19912;-66
2021/12/30 03:36:33;;;;;;;;;;;21.40;53.00;;;;;;5047048;28;19923;-63
2021/12/30 03:38:59;;;;;;;;;;;21.40;53.00;;;;;;5048955;28;19995;-63
2021/12/30 03:41:25;;;;;;;;;;;21.40;53.10;;;;;;5047143;28;20015;-64
2021/12/30 03:43:51;;;;;;;;;;;21.30;53.00;;;;;;5046899;28;19913;-64
2021/12/30 03:46:17;;;;;;;;;;;21.30;53.10;;;;;;5048218;28;19923;-64
2021/12/30 03:48:44;;;;;;;;;;;21.30;53.10;;;;;;5047981;28;19908;-68
2021/12/30 03:51:13;;;;;;;;;;;21.30;53.10;;;;;;5047198;28;20043;-66
2021/12/30 03:53:40;;;;;;;;;;;21.30;53.10;;;;;;5045455;28;19921;-63
2021/12/30 03:56:07;;;;;;;;;;;21.30;53.10;;;;;;5046322;28;19999;-64
2021/12/30 03:58:32;;;;;;;;;;;21.30;53.10;;;;;;5044627;28;19912;-64
2021/12/30 04:00:58;;;;;;;;;;;21.30;53.20;;;;;;5044510;28;20385;-65
2021/12/30 04:03:24;;;;;;;;;;;21.30;53.20;;;;;;5048148;28;19950;-65
2021/12/30 04:05:49;;;;;;;;;;;21.30;53.20;;;;;;5045745;28;19912;-66
2021/12/30 04:08:15;;;;;;;;;;;21.30;53.20;;;;;;5046587;28;19971;-64
2021/12/30 04:10:40;;;;;;;;;;;21.20;53.20;;;;;;5051159;28;20310;-68
2021/12/30 04:13:06;;;;;;;;;;;21.20;53.20;;;;;;5046485;28;19951;-67
2021/12/30 04:15:31;;;;;;;;;;;21.20;53.20;;;;;;5042152;28;20330;-64
2021/12/30 04:17:57;;;;;;;;;;;21.20;53.20;;;;;;5047160;28;19912;-64
2021/12/30 04:20:22;;;;;;;;;;;21.20;53.30;;;;;;5045490;28;19915;-64
2021/12/30 04:22:48;;;;;;;;;;;21.20;53.30;;;;;;5045714;28;19909;-64
2021/12/30 04:25:14;;;;;;;;;;;21.20;53.30;;;;;;5048855;28;19924;-67
2021/12/30 04:27:39;;;;;;;;;;;21.20;53.30;;;;;;5047280;28;20395;-68
2021/12/30 04:30:06;;;;;;;;;;;21.20;53.30;;;;;;5048301;28;19970;-67
2021/12/30 04:32:32;;;;;;;;;;;21.20;53.30;;;;;;5047857;28;19927;-64
2021/12/30 04:34:57;;;;;;;;;;;21.20;53.30;;;;;;5046385;28;19913;-67
2021/12/30 04:37:23;;;;;;;;;;;21.20;53.40;;;;;;5043637;28;19913;-64
2021/12/30 04:39:49;;;;;;;;;;;21.10;53.30;;;;;;5048558;28;19916;-64
2021/12/30 04:42:14;;;;;;;;;;;21.10;53.30;;;;;;5047055;28;19912;-65
2021/12/30 04:44:40;;;;;;;;;;;21.10;53.30;;;;;;5045979;28;19928;-65
2021/12/30 04:47:06;;;;;;;;;;;21.10;53.40;;;;;;5047001;28;20364;-68
2021/12/30 04:49:32;;;;;;;;;;;21.10;53.40;;;;;;5048410;28;19991;-68
2021/12/30 04:51:57;;;;;;;;;;;21.10;53.40;;;;;;5045612;28;20011;-68
2021/12/30 04:54:23;;;;;;;;;;;21.10;53.40;;;;;;5047545;28;19913;-67
2021/12/30 04:56:48;;;;;;;;;;;21.10;53.50;;;;;;5043323;28;19959;-64
2021/12/30 04:59:13;;;;;;;;;;;21.10;53.50;;;;;;5042614;28;19909;-68
2021/12/30 05:01:39;;;;;;;;;;;21.10;53.50;;;;;;5046128;28;19927;-64
2021/12/30 05:04:05;;;;;;;;;;;21.10;53.50;;;;;;5046813;28;20250;-63
2021/12/30 05:06:32;;;;;;;;;;;21.10;53.50;;;;;;5045645;28;19923;-64
2021/12/30 05:08:58;;;;;;;;;;;21.10;53.50;;;;;;5047057;28;19909;-63
2021/12/30 05:11:24;;;;;;;;;;;21.10;53.50;;;;;;5058568;28;19962;-65
2021/12/30 05:13:49;;;;;;;;;;;21.00;53.50;;;;;;5043514;28;19913;-63
2021/12/30 05:16:16;;;;;;;;;;;21.00;53.50;;;;;;5046403;28;19912;-64
2021/12/30 05:18:41;;;;;;;;;;;21.00;53.50;;;;;;5046886;28;19905;-64
2021/12/30 05:21:07;;;;;;;;;;;21.00;53.50;;;;;;5046830;28;19912;-65
2021/12/30 05:23:32;;;;;;;;;;;21.00;53.50;;;;;;5045156;28;20341;-63
2021/12/30 05:25:58;;;;;;;;;;;21.00;53.60;;;;;;5046391;28;19919;-64
2021/12/30 05:28:24;;;;;;;;;;;21.00;53.60;;;;;;5045382;28;20394;-63
2021/12/30 05:30:49;;;;;;;;;;;21.00;53.60;;;;;;5045422;28;19971;-64
2021/12/30 05:33:15;;;;;;;;;;;21.00;53.60;;;;;;5045007;28;19909;-68
2021/12/30 05:35:41;;;;;;;;;;;21.00;53.60;;;;;;5047799;28;19948;-63
2021/12/30 05:38:06;;;;;;;;;;;21.00;53.60;;;;;;5042443;28;19916;-63
2021/12/30 05:40:32;;;;;;;;;;;21.00;53.60;;;;;;5043209;28;20359;-65
2021/12/30 05:42:58;;;;;;;;;;;21.00;53.60;;;;;;5045790;28;19912;-68
2021/12/30 05:45:24;;;;;;;;;;;21.00;53.60;;;;;;5046140;28;19916;-64
2021/12/30 05:47:50;;;;;;;;;;;21.00;53.60;;;;;;5044021;28;19916;-68
2021/12/30 05:50:20;;;;;;;;;;;21.00;53.60;;;;;;5045984;28;19917;-68
2021/12/30 05:52:46;;;;;;;;;;;21.00;53.60;;;;;;5042591;28;20451;-64
2021/12/30 05:55:13;;;;;;;;;;;21.00;53.60;;;;;;5046235;28;19921;-64
2021/12/30 05:57:39;;;;;;;;;;;21.00;53.60;;;;;;5043233;28;20363;-64
2021/12/30 06:00:06;;;;;;;;;;;21.00;53.60;;;;;;5045087;28;19975;-66
2021/12/30 06:02:31;;;;;;;;;;;20.90;53.60;;;;;;5040915;28;19943;-65
2021/12/30 06:04:57;;;;;;;;;;;21.00;53.70;;;;;;5038098;28;19924;-68
2021/12/30 06:07:22;;;;;;;;;;;21.00;53.60;;;;;;5039647;28;19912;-64
2021/12/30 06:09:48;;;;;;;;;;;21.00;53.60;;;;;;5041241;28;20341;-67
2021/12/30 06:12:13;;;;;;;;;;;20.90;53.60;;;;;;5040407;28;19913;-68
2021/12/30 06:14:39;;;;;;;;;;;20.90;53.60;;;;;;5041585;28;19985;-68
2021/12/30 06:17:04;;;;;;;;;;;20.90;53.60;;;;;;5041175;28;19974;-64
2021/12/30 06:19:30;;;;;;;;;;;20.90;53.60;;;;;;5043002;28;19912;-65
2021/12/30 06:21:55;;;;;;;;;;;20.90;53.60;;;;;;5038382;28;19995;-65
2021/12/30 06:24:21;;;;;;;;;;;20.90;53.60;;;;;;5037635;28;19957;-65
2021/12/30 06:26:47;;;;;;;;;;;20.90;53.60;;;;;;5039491;28;19916;-64
2021/12/30 06:29:12;;;;;;;;;;;20.90;53.60;;;;;;5042370;28;19920;-63
2021/12/30 06:31:40;;;;;;;;;;;20.90;53.60;;;;;;5041277;28;19920;-64
2021/12/30 06:34:05;;;;;;;;;;;20.90;54.20;;;;;;5041949;28;19963;-65
2021/12/30 06:36:31;;;;;;;;;;;20.90;53.60;;;;;;5039449;28;19913;-67
2021/12/30 06:38:56;;;;;;;;;;;20.90;53.60;;;;;;5039999;28;19912;-64
2021/12/30 06:41:22;;;;;;;;;;;20.90;53.70;;;;;;5037401;28;19913;-67
2021/12/30 06:43:47;;;;;;;;;;;20.90;53.70;;;;;;5042585;28;19920;-68
2021/12/30 06:46:13;;;;;;;;;;;20.90;53.70;;;;;;5040974;28;19920;-68
2021/12/30 06:48:44;;;;;;;;;;;20.90;53.70;;;;;;5043693;28;19955;-64
2021/12/30 06:51:10;;;;;;;;;;;20.90;53.70;;;;;;5039296;28;20031;-65
2021/12/30 06:53:36;;;;;;;;;;;20.90;53.70;;;;;;5043261;28;19928;-68
2021/12/30 06:56:01;;;;;;;;;;;20.90;53.70;;;;;;5041995;28;19912;-64
2021/12/30 06:58:27;;;;;;;;;;;20.90;53.70;;;;;;5043467;28;19987;-64
2021/12/30 07:00:52;;;;;;;;;;;20.90;53.70;;;;;;5040254;28;20403;-68
2021/12/30 07:03:18;;;;;;;;;;;20.80;53.70;;;;;;5042754;28;19913;-64
2021/12/30 07:05:43;;;;;;;;;;;20.80;53.70;;;;;;5043248;28;19913;-64
2021/12/30 07:08:09;;;;;;;;;;;20.90;53.70;;;;;;5038157;28;19908;-64
2021/12/30 07:10:35;;;;;;;;;;;20.80;53.70;;;;;;5041195;28;20717;-65
2021/12/30 07:13:00;;;;;;;;;;;20.80;53.70;;;;;;5041889;28;19978;-64
2021/12/30 07:15:26;;;;;;;;;;;20.90;53.70;;;;;;5041615;28;20353;-66
2021/12/30 07:17:51;;;;;;;;;;;20.90;53.70;;;;;;5043077;28;20031;-68
2021/12/30 07:20:17;;;;;;;;;;;20.80;53.70;;;;;;5041600;28;19919;-66
2021/12/30 07:22:42;;;;;;;;;;;20.90;53.70;;;;;;5037582;28;19908;-68
2021/12/30 07:25:08;;;;;;;;;;;20.80;53.70;;;;;;5042541;28;19913;-64
2021/12/30 07:27:34;;;;;;;;;;;20.80;53.70;;;;;;5041522;28;20004;-68
2021/12/30 07:30:00;;;;;;;;;;;20.80;53.70;;;;;;5040135;28;20386;-64
2021/12/30 07:32:26;;;;;;;;;;;20.80;53.70;;;;;;5042418;28;20001;-65
2021/12/30 07:34:51;;;;;;;;;;;20.80;53.70;;;;;;5039582;28;19916;-68
2021/12/30 07:37:17;;;;;;;;;;;20.80;53.70;;;;;;5035568;28;19960;-64
2021/12/30 07:39:44;;;;;;;;;;;20.80;53.70;;;;;;5043221;28;19928;-65
2021/12/30 07:42:09;;;;;;;;;;;20.80;53.70;;;;;;5040583;28;19958;-68
2021/12/30 07:44:35;;;;;;;;;;;20.80;53.70;;;;;;5041927;28;19920;-68
2021/12/30 07:47:00;;;;;;;;;;;20.80;53.70;;;;;;5044722;28;19908;-63
2021/12/30 07:49:26;;;;;;;;;;;20.80;53.70;;;;;;5045879;28;19908;-64
2021/12/30 07:51:52;;;;;;;;;;;20.80;53.80;;;;;;5042192;28;20008;-64
2021/12/30 07:54:17;;;;;;;;;;;20.80;53.80;;;;;;5042532;28;19924;-68
2021/12/30 07:56:43;;;;;;;;;;;20.80;53.80;;;;;;5041817;28;19913;-64
2021/12/30 07:59:08;;;;;;;;;;;20.80;53.80;;;;;;5045650;28;20027;-64
2021/12/30 08:01:34;;;;;;;;;;;20.80;53.80;;;;;;5042972;28;19959;-68
2021/12/30 08:03:59;;;;;;;;;;;20.80;53.80;;;;;;5045379;28;19912;-68
2021/12/30 08:06:27;;;;;;;;;;;20.70;53.80;;;;;;5038423;28;19923;-65
2021/12/30 08:08:53;;;;;;;;;;;20.70;53.80;;;;;;5042708;28;19913;-64
2021/12/30 08:11:18;;;;;;;;;;;20.70;53.80;;;;;;5042441;28;19928;-64
2021/12/30 08:13:44;;;;;;;;;;;20.70;53.80;;;;;;5041861;28;20543;-65
2021/12/30 08:16:10;;;;;;;;;;;20.70;53.80;;;;;;5040662;28;19913;-64
2021/12/30 08:18:35;;;;;;;;;;;20.70;53.80;;;;;;5047287;28;20467;-67
2021/12/30 08:21:01;;;;;;;;;;;20.70;53.80;;;;;;5047215;28;19931;-64
2021/12/30 08:23:26;;;;;;;;;;;20.70;53.80;;;;;;5043705;28;19959;-67
2021/12/30 08:25:52;;;;;;;;;;;20.70;53.80;;;;;;5045972;28;19912;-68
2021/12/30 08:28:18;;;;;;;;;;;20.70;53.80;;;;;;5038892;28;19917;-64
2021/12/30 08:30:44;;;;;;;;;;;20.70;53.80;;;;;;5044989;28;19974;-63
2021/12/30 08:33:09;;;;;;;;;;;20.70;53.80;;;;;;5046685;28;19920;-65
2021/12/30 08:35:35;;;;;;;;;;;20.70;53.80;;;;;;5047544;28;20335;-64
2021/12/30 08:38:00;;;;;;;;;;;20.70;53.80;;;;;;5041920;28;19913;-63
2021/12/30 08:40:26;;;;;;;;;;;20.70;53.90;;;;;;5041275;28;20254;-67
2021/12/30 08:42:52;;;;;;;;;;;20.70;53.90;;;;;;5044524;28;19916;-63
2021/12/30 08:45:18;;;;;;;;;;;20.70;53.90;;;;;;5042232;28;19917;-64
2021/12/30 08:47:44;;;;;;;;;;;20.70;53.90;;;;;;5043803;28;20333;-67
2021/12/30 08:50:11;;;;;;;;;;;20.70;53.90;;;;;;5041830;28;20043;-65
2021/12/30 08:52:36;;;;;;;;;;;20.70;53.90;;;;;;5038820;28;19998;-67
2021/12/30 08:55:05;;;;;;;;;;;20.70;54.00;;;;;;5043574;28;20077;-63
2021/12/30 08:57:31;;;;;;;;;;;20.70;54.00;;;;;;5042517;28;19909;-65
2021/12/30 08:59:57;;;;;;;;;;;20.70;54.00;;;;;;5039761;28;19963;-68
2021/12/30 09:02:23;;;;;;;;;;;20.70;54.00;;;;;;5043138;28;19978;-65
2021/12/30 09:04:48;;;;;;;;;;;20.70;54.00;;;;;;5044802;28;19909;-67
2021/12/30 09:07:16;;;;;;;;;;;20.70;54.00;;;;;;5039236;28;19920;-65
2021/12/30 09:09:43;;;;;;;;;;;20.70;54.00;;;;;;5040707;28;19912;-63
2021/12/30 09:12:08;;;;;;;;;;;20.70;54.10;;;;;;5045266;28;19985;-65
2021/12/30 09:14:37;;;;;;;;;;;20.60;54.00;;;;;;5042169;28;19957;-64
2021/12/30 09:17:03;;;;;;;;;;;20.70;54.10;;;;;;5043744;28;19908;-67
2021/12/30 09:19:28;;;;;;;;;;;20.70;54.10;;;;;;5042942;28;19917;-65
2021/12/30 09:21:56;;;;;;;;;;;20.70;54.10;;;;;;5039428;28;20336;-65
2021/12/30 09:24:21;;;;;;;;;;;20.70;54.10;;;;;;5043622;28;19999;-65
2021/12/30 09:26:47;;;;;;;;;;;20.70;54.10;;;;;;5039982;28;20679;-68
2021/12/30 09:29:12;;;;;;;;;;;20.70;54.10;;;;;;5044673;28;19908;-65
2021/12/30 09:31:42;;;;;;;;;;;20.70;54.20;;;;;;5042409;28;19960;-67
2021/12/30 09:34:07;;;;;;;;;;;20.60;54.20;;;;;;5042554;28;19921;-64
2021/12/30 09:36:33;;;;;;;;;;;20.70;54.20;;;;;;5040482;28;19913;-63
2021/12/30 09:38:59;;;;;;;;;;;20.60;54.20;;;;;;5042544;28;19912;-65
2021/12/30 09:41:25;;;;;;;;;;;20.60;54.20;;;;;;5041423;28;19962;-67
2021/12/30 09:43:50;;;;;;;;;;;20.60;54.20;;;;;;5038255;28;20218;-64
2021/12/30 09:46:16;;;;;;;;;;;20.60;54.40;;;;;;5041448;28;20387;-64
2021/12/30 09:48:43;;;;;;;;;;;20.60;54.50;;;;;;5041787;28;19913;-64
2021/12/30 09:51:09;;;;;;;;;;;20.60;54.50;;;;;;5040676;28;20003;-66
2021/12/30 09:53:34;;;;;;;;;;;20.60;54.50;;;;;;5041925;28;20558;-64
2021/12/30 09:56:00;;;;;;;;;;;20.60;54.40;;;;;;5040444;28;19913;-65
2021/12/30 09:58:26;;;;;;;;;;;20.60;54.50;;;;;;5042397;28;20427;-65
2021/12/30 10:00:52;;;;;;;;;;;20.60;54.50;;;;;;5041152;28;19920;-65
2021/12/30 10:03:17;;;;;;;;;;;20.60;54.50;;;;;;5042559;28;19909;-64
2021/12/30 10:05:43;;;;;;;;;;;20.60;54.60;;;;;;5041931;28;19912;-67
2021/12/30 10:08:25;;;;;;;;;;;20.60;54.60;;;;;;5042251;28;19916;-67
2021/12/30 10:10:52;;;;;;;;;;;20.60;54.60;;;;;;5039981;28;19912;-65
2021/12/30 10:13:22;;;;;;;;;;;20.60;54.70;;;;;;5040455;28;19909;-65
2021/12/30 10:15:52;;;;;;;;;;;20.60;54.70;;;;;;5038058;28;19980;-63
2021/12/30 10:18:18;;;;;;;;;;;20.70;54.80;;;;;;5038618;28;19912;-64
2021/12/30 10:20:44;;;;;;;;;;;20.60;54.80;;;;;;5037339;28;19912;-65
2021/12/30 10:23:13;;;;;;;;;;;20.60;54.70;;;;;;5035209;28;19920;-67
2021/12/30 10:25:40;;;;;;;;;;;20.60;54.70;;;;;;5042158;28;20809;-65
2021/12/30 10:28:24;;;;;;;;;;;20.60;54.70;;;;;;5036363;28;19924;-66
2021/12/30 10:30:51;;;;;;;;;;;20.60;54.60;;;;;;5041596;28;20694;-64
2021/12/30 10:33:18;;;;;;;;;;;20.70;54.70;;;;;;5040324;28;19913;-65
2021/12/30 10:35:44;;;;;;;;;;;20.60;54.70;;;;;;5040737;28;19917;-65
2021/12/30 10:38:11;;;;;;;;;;;20.60;54.70;;;;;;5040240;28;19917;-65
2021/12/30 10:40:38;;;;;;;;;;;20.60;54.70;;;;;;5041036;28;19939;-65
2021/12/30 10:43:13;;;;;;;;;;;20.60;54.70;;;;;;5042890;28;19992;-64
2021/12/30 10:45:39;;;;;;;;;;;20.60;54.60;;;;;;5034986;28;19916;-65
2021/12/30 10:48:07;;;;;;;;;;;20.60;54.70;;;;;;5039235;28;19925;-64
2021/12/30 10:50:32;;;;;;;;;;;20.60;54.70;;;;;;5044061;28;19924;-67
2021/12/30 10:52:58;;;;;;;;;;;20.60;54.60;;;;;;5038625;28;19932;-63
2021/12/30 10:55:24;;;;;;;;;;;20.60;54.60;;;;;;5043714;28;19943;-65
2021/12/30 10:57:50;;;;;;;;;;;20.60;54.60;;;;;;5041831;28;20034;-68
2021/12/30 11:00:29;;;;;;;;;;;20.60;54.70;;;;;;5041932;28;20015;-64
2021/12/30 11:02:55;;;;;;;;;;;20.60;54.70;;;;;;5042986;28;19928;-65
2021/12/30 11:05:20;;;;;;;;;;;20.60;54.70;;;;;;5045137;28;19912;-65
2021/12/30 11:07:51;;;;;;;;;;;20.60;54.70;;;;;;5038033;28;19927;-67
2021/12/30 11:10:28;;;;;;;;;;;20.60;54.70;;;;;;5042192;28;19960;-65
2021/12/30 11:12:54;;;;;;;;;;;20.60;54.80;;;;;;5041799;28;19979;-64
2021/12/30 11:15:23;;;;;;;;;;;20.60;55.00;;;;;;5038116;28;20671;-66
2021/12/30 11:17:49;;;;;;;;;;;20.60;55.10;;;;;;5036083;28;19912;-68
2021/12/30 11:20:16;;;;;;;;;;;20.60;55.10;;;;;;5035437;28;19916;-63
2021/12/30 11:22:41;;;;;;;;;;;20.60;55.20;;;;;;5041477;28;20211;-63
2021/12/30 11:25:10;;;;;;;;;;;20.60;55.60;;;;;;5039457;28;19931;-64
2021/12/30 11:27:36;;;;;;;;;;;20.60;55.70;;;;;;5036469;28;20041;-65
2021/12/30 11:30:21;;;;;;;;;;;20.60;55.80;;;;;;5036616;28;19916;-63
2021/12/30 11:32:48;;;;;;;;;;;20.60;56.00;;;;;;5032475;28;20676;-67
2021/12/30 11:35:14;;;;;;;;;;;20.60;56.20;;;;;;5036635;28;19921;-63
2021/12/30 11:37:40;;;;;;;;;;;20.60;56.30;;;;;;5040764;28;19920;-63
2021/12/30 11:40:07;;;;;;;;;;;20.60;56.30;;;;;;5042470;28;19913;-67
2021/12/30 11:42:41;;;;;;;;;;;20.60;56.40;;;;;;5042505;28;20506;-64
2021/12/30 11:45:25;;;;;;;;;;;20.60;56.50;;;;;;5041315;28;19931;-67
2021/12/30 11:47:51;;;;;;;;;;;20.60;57.00;;;;;;5029487;28;20384;-65
2021/12/30 11:50:16;;;;;;;;;;;20.60;56.20;;;;;;5034439;28;20015;-65
2021/12/30 11:52:53;;;;;;;;;;;20.70;56.50;;;;;;5036196;28;19987;-65
2021/12/30 11:55:37;;;;;;;;;;;20.80;56.60;;;;;;5035091;28;19990;-65
2021/12/30 11:58:22;;;;;;;;;;;20.80;56.60;;;;;;5037840;28;19921;-68
2021/12/30 12:00:49;;;;;;;;;;;20.80;56.60;;;;;;5033152;28;19921;-67
2021/12/30 12:03:28;;;;;;;;;;;20.80;56.20;;;;;;5031913;28;19948;-66
2021/12/30 12:05:54;;;;;;;;;;;20.90;56.10;;;;;;5034801;28;20011;-66
2021/12/30 12:08:19;;;;;;;;;;;20.90;55.90;;;;;;5033371;28;19923;-64
2021/12/30 12:11:05;;;;;;;;;;;21.00;56.00;;;;;;5035604;28;19912;-65
2021/12/30 12:13:30;;;;;;;;;;;21.00;55.90;;;;;;5034902;28;19917;-66
2021/12/30 12:15:56;;;;;;;;;;;21.10;56.00;;;;;;5037640;28;20038;-65
2021/12/30 12:18:23;;;;;;;;;;;21.10;55.80;;;;;;5036403;28;19912;-67
2021/12/30 12:20:52;;;;;;;;;;;21.10;55.80;;;;;;5036696;28;19947;-66
2021/12/30 12:23:35;;;;;;;;;;;21.20;55.90;;;;;;5031323;28;19917;-66
2021/12/30 12:26:08;;;;;;;;;;;21.20;55.70;;;;;;5035379;28;19923;-65
2021/12/30 12:28:34;;;;;;;;;;;21.20;55.50;;;;;;5038376;28;19969;-66
2021/12/30 12:31:00;;;;;;;;;;;21.30;55.90;;;;;;5035415;28;19921;-64
2021/12/30 12:33:27;;;;;;;;;;;21.40;55.60;;;;;;5036514;28;20691;-66
2021/12/30 12:35:53;;;;;;;;;;;21.40;55.50;;;;;;5039393;28;19967;-65
2021/12/30 12:38:35;;;;;;;;;;;21.40;55.50;;;;;;5035475;28;20054;-66
2021/12/30 12:41:02;;;;;;;;;;;21.40;55.60;;;;;;5033848;28;19913;-65
2021/12/30 12:43:28;;;;;;;;;;;21.50;55.30;;;;;;5038366;28;19977;-65
2021/12/30 12:45:59;;;;;;;;;;;21.50;55.30;;;;;;5037151;28;19920;-70
2021/12/30 12:48:26;;;;;;;;;;;21.50;55.20;;;;;;5038246;28;19917;-67
2021/12/30 12:50:57;;;;;;;;;;;21.60;55.20;;;;;;5033498;28;20329;-67
2021/12/30 12:53:23;;;;;;;;;;;21.60;55.10;;;;;;5037483;28;19917;-65
2021/12/30 12:55:49;;;;;;;;;;;21.60;55.00;;;;;;5029762;28;19913;-66
2021/12/30 12:58:19;;;;;;;;;;;21.70;55.10;;;;;;5039328;28;20668;-69
2021/12/30 13:00:44;;;;;;;;;;;21.70;55.00;;;;;;5033098;28;19921;-65
2021/12/30 13:03:10;;;;;;;;;;;21.70;55.30;;;;;;5035648;28;20323;-68
2021/12/30 13:05:35;;;;;;;;;;;21.80;55.00;;;;;;5033524;28;19916;-66
2021/12/30 13:08:01;;;;;;;;;;;21.80;55.10;;;;;;5029763;28;19915;-65
2021/12/30 13:10:26;;;;;;;;;;;21.80;55.30;;;;;;5035043;28;20067;-65
2021/12/30 13:12:58;;;;;;;;;;;21.80;55.00;;;;;;5034265;28;20033;-66
2021/12/30 13:15:23;;;;;;;;;;;21.90;55.00;;;;;;5033529;28;20302;-64
2021/12/30 13:17:49;;;;;;;;;;;21.90;55.00;;;;;;5036673;28;19912;-65
2021/12/30 13:20:14;;;;;;;;;;;21.90;54.80;;;;;;5034562;28;19923;-69
2021/12/30 13:22:40;;;;;;;;;;;22.00;55.20;;;;;;5031600;28;20296;-66
2021/12/30 13:25:06;;;;;;;;;;;22.00;55.00;;;;;;5034920;28;19953;-66
2021/12/30 13:27:37;;;;;;;;;;;22.00;54.80;;;;;;5036469;28;19917;-65
2021/12/30 13:30:07;;;;;;;;;;;22.00;54.70;;;;;;5036631;28;19963;-63
2021/12/30 13:32:34;;;;;;;;;;;22.00;54.70;;;;;;5032761;28;19921;-65
2021/12/30 13:35:11;;;;;;;;;;;22.10;55.20;;;;;;5039686;28;19999;-67
2021/12/30 13:37:40;;;;;;;;;;;22.10;54.90;;;;;;5035555;28;19913;-68
2021/12/30 13:40:18;;;;;;;;;;;22.10;54.90;;;;;;5038674;28;20066;-64
2021/12/30 13:42:51;;;;;;;;;;;22.20;54.80;;;;;;5033597;28;19962;-65
2021/12/30 13:45:21;;;;;;;;;;;22.20;54.80;;;;;;5039581;28;20033;-68
2021/12/30 13:47:47;;;;;;;;;;;22.20;54.70;;;;;;5037222;28;21235;-65
2021/12/30 13:50:14;;;;;;;;;;;22.20;54.80;;;;;;5036978;28;19925;-66
2021/12/30 13:52:40;;;;;;;;;;;22.30;54.80;;;;;;5033964;28;19909;-64
2021/12/30 13:55:14;;;;;;;;;;;22.20;54.80;;;;;;5036174;28;19982;-66
2021/12/30 13:57:40;;;;;;;;;;;22.30;54.40;;;;;;5034658;28;20636;-65
2021/12/30 14:00:07;;;;;;;;;;;22.30;54.50;;;;;;5033456;28;19952;-66
2021/12/30 14:02:33;;;;;;;;;;;22.30;54.50;;;;;;5034882;28;19925;-68
2021/12/30 14:05:03;;;;;;;;;;;22.40;54.30;;;;;;5036439;28;19924;-67
2021/12/30 14:07:37;;;;;;;;;;;22.40;54.30;;;;;;5046103;28;19978;-66
2021/12/30 14:10:03;;;;;;;;;;;22.40;54.20;;;;;;5034801;28;19913;-67
2021/12/30 14:12:29;;;;;;;;;;;22.40;54.20;;;;;;5033211;28;20586;-65
2021/12/30 14:14:55;;;;;;;;;;;22.40;54.10;;;;;;5029996;28;19920;-65